createdAt,value
2023-07-18T00:01:12.451Z,23.17
2023-07-18T00:06:15.866Z,23.16
2023-07-18T00:11:18.024Z,23.20
2023-07-18T00:16:20.210Z,23.35
2023-07-18T00:21:22.118Z,23.33
2023-07-18T00:26:25.483Z,23.19
2023-07-18T00:31:28.247Z,23.09
2023-07-18T00:36:30.828Z,22.92
2023-07-18T00:41:32.767Z,23.11
2023-07-18T00:46:34.744Z,22.98
2023-07-18T00:51:36.642Z,22.53
2023-07-18T00:56:40.642Z,22.29
2023-07-18T01:01:42.644Z,22.45
2023-07-18T01:06:46.026Z,22.45
2023-07-18T01:11:47.862Z,22.27
2023-07-18T01:16:49.674Z,22.50
2023-07-18T01:21:51.492Z,22.29
2023-07-18T01:26:53.762Z,22.26
2023-07-18T01:31:55.600Z,22.17
2023-07-18T01:36:57.694Z,22.37
2023-07-18T01:41:59.513Z,22.62
2023-07-18T01:47:03.776Z,22.49
2023-07-18T01:52:06.306Z,22.43
2023-07-18T01:57:08.137Z,22.40
2023-07-18T02:02:10.026Z,22.25
2023-07-18T02:07:11.892Z,22.15
2023-07-18T02:12:13.720Z,22.34
2023-07-18T02:17:15.640Z,22.19
2023-07-18T02:22:20.490Z,22.16
2023-07-18T02:27:23.495Z,22.25
2023-07-18T02:32:25.272Z,22.21
2023-07-18T02:37:27.832Z,22.22
2023-07-18T02:42:31.515Z,22.29
2023-07-18T02:47:33.459Z,22.20
2023-07-18T02:52:35.510Z,22.29
2023-07-18T02:57:37.680Z,22.22
2023-07-18T03:02:39.844Z,22.26
2023-07-18T03:07:41.827Z,21.94
2023-07-18T03:12:43.632Z,22.21
2023-07-18T03:17:45.508Z,22.15
2023-07-18T03:22:49.499Z,22.06
2023-07-18T03:27:52.361Z,21.78
2023-07-18T03:32:54.480Z,21.56
2023-07-18T03:37:56.280Z,21.67
2023-07-18T03:42:58.156Z,21.67
2023-07-18T03:48:00.528Z,21.47
2023-07-18T03:53:02.358Z,21.36
2023-07-18T03:58:04.220Z,21.52
2023-07-18T04:03:06.001Z,21.54
2023-07-18T04:08:07.955Z,21.61
2023-07-18T04:13:09.719Z,21.70
2023-07-18T04:18:11.486Z,21.18
2023-07-18T04:23:13.516Z,21.73
2023-07-18T04:28:15.453Z,21.76
2023-07-18T04:33:17.391Z,21.76
2023-07-18T04:38:19.354Z,21.79
2023-07-18T04:43:21.172Z,21.67
2023-07-18T04:48:22.931Z,21.91
2023-07-18T04:53:28.049Z,22.11
2023-07-18T04:58:29.787Z,22.06
2023-07-18T05:03:40.917Z,22.30
2023-07-18T05:08:54.902Z,22.17
2023-07-18T05:13:56.760Z,22.28
2023-07-18T05:18:58.492Z,22.35
2023-07-18T05:24:00.281Z,22.35
2023-07-18T05:29:02.013Z,22.39
2023-07-18T05:34:03.814Z,22.48
2023-07-18T05:39:05.557Z,22.63
2023-07-18T05:44:07.359Z,22.80
2023-07-18T05:49:09.251Z,22.77
2023-07-18T05:54:11.031Z,22.68
2023-07-18T05:59:12.841Z,23.01
2023-07-18T06:04:17.248Z,22.88
2023-07-18T06:09:19.329Z,23.13
2023-07-18T06:14:21.286Z,23.44
2023-07-18T06:19:23.083Z,23.57
2023-07-18T06:24:25.689Z,23.76
2023-07-18T06:29:27.918Z,23.79
2023-07-18T06:34:31.432Z,23.77
2023-07-18T06:39:33.242Z,23.73
2023-07-18T06:44:35.099Z,21.79
2023-07-18T06:49:37.122Z,22.39
2023-07-18T06:54:38.977Z,21.97
2023-07-18T06:59:41.048Z,21.46
2023-07-18T07:04:42.865Z,20.02
2023-07-18T07:09:44.950Z,20.01
2023-07-18T07:14:46.763Z,20.49
2023-07-18T07:19:48.585Z,21.89
2023-07-18T07:24:50.397Z,20.84
2023-07-18T07:29:53.212Z,20.16
2023-07-18T07:34:55.110Z,21.27
2023-07-18T07:39:56.984Z,21.82
2023-07-18T07:45:00.081Z,22.02
2023-07-18T07:50:02.989Z,21.03
2023-07-18T07:55:05.260Z,20.23
2023-07-18T08:00:08.392Z,19.68
2023-07-18T08:05:10.361Z,19.99
2023-07-18T08:10:12.345Z,19.84
2023-07-18T08:15:14.267Z,19.18
2023-07-18T08:20:16.095Z,20.66
2023-07-18T08:25:19.037Z,20.11
2023-07-18T08:30:21.188Z,20.43
2023-07-18T08:35:24.065Z,21.46
2023-07-18T08:40:25.893Z,20.73
2023-07-18T08:45:31.704Z,21.90
2023-07-18T08:50:34.891Z,19.80
2023-07-18T08:55:37.915Z,20.81
2023-07-18T09:00:39.936Z,19.65
2023-07-18T09:05:41.792Z,21.45
2023-07-18T09:10:43.680Z,22.49
2023-07-18T09:15:45.474Z,23.58
2023-07-18T09:20:47.338Z,24.00
2023-07-18T09:25:49.115Z,24.06
2023-07-18T09:30:50.920Z,23.22
2023-07-18T09:35:52.809Z,22.47
2023-07-18T09:40:55.831Z,23.45
2023-07-18T09:45:57.840Z,21.81
2023-07-18T09:51:03.285Z,21.81
2023-07-18T09:56:07.389Z,21.24
2023-07-18T10:01:13.081Z,22.03
2023-07-18T10:06:16.352Z,22.85
2023-07-18T10:11:18.410Z,22.60
2023-07-18T10:16:21.082Z,22.81
2023-07-18T10:21:36.049Z,23.79
2023-07-18T10:26:53.600Z,23.95
2023-07-18T10:32:06.109Z,24.41
2023-07-18T10:37:11.899Z,24.13
2023-07-18T10:42:22.313Z,24.74
2023-07-18T10:47:24.767Z,24.74
2023-07-18T10:52:26.909Z,26.24
2023-07-18T10:57:30.701Z,25.47
2023-07-18T11:02:38.607Z,24.89
2023-07-18T11:07:42.466Z,24.45
2023-07-18T11:12:44.530Z,23.94
2023-07-18T11:17:46.365Z,24.62
2023-07-18T11:22:48.316Z,24.55
2023-07-18T11:27:50.663Z,24.72
2023-07-18T11:32:52.569Z,25.60
2023-07-18T11:37:55.083Z,24.59
2023-07-18T11:42:59.076Z,25.87
2023-07-18T11:48:01.132Z,25.03
2023-07-18T11:53:04.762Z,24.99
2023-07-18T11:58:09.146Z,24.62
2023-07-18T12:03:11.374Z,25.30
2023-07-18T12:08:14.737Z,24.00
2023-07-18T12:13:17.271Z,26.12
2023-07-18T12:18:19.435Z,25.32
2023-07-18T12:23:21.285Z,27.10
2023-07-18T12:28:23.051Z,26.51
2023-07-18T12:33:24.916Z,27.13
2023-07-18T12:38:29.035Z,27.90
2023-07-18T12:43:31.816Z,26.67
2023-07-18T12:48:33.631Z,27.22
2023-07-18T12:53:35.685Z,27.74
2023-07-18T12:58:37.515Z,27.07
2023-07-18T13:03:39.445Z,28.17
2023-07-18T13:08:41.389Z,28.05
2023-07-18T13:13:43.704Z,28.28
2023-07-18T13:18:45.503Z,29.03
2023-07-18T13:23:51.910Z,28.82
2023-07-18T13:28:53.662Z,29.82
2023-07-18T13:33:55.452Z,29.84
2023-07-18T13:38:57.272Z,29.75
2023-07-18T13:43:59.004Z,28.83
2023-07-18T13:49:02.174Z,28.87
2023-07-18T13:54:04.026Z,30.22
2023-07-18T13:59:05.778Z,31.45
2023-07-18T14:04:07.875Z,30.71
2023-07-18T14:09:09.806Z,29.35
2023-07-18T14:14:11.573Z,30.10
2023-07-18T14:19:13.369Z,30.83
2023-07-18T14:24:15.119Z,30.89
2023-07-18T14:29:16.897Z,30.10
2023-07-18T14:34:18.959Z,31.25
2023-07-18T14:39:20.774Z,32.56
2023-07-18T14:44:22.674Z,33.44
2023-07-18T14:49:24.474Z,33.86
2023-07-18T14:54:26.336Z,34.15
2023-07-18T14:59:28.159Z,34.24
2023-07-18T15:04:29.914Z,34.10
2023-07-18T15:09:32.026Z,34.02
2023-07-18T15:14:33.786Z,31.82
2023-07-18T15:19:35.702Z,30.60
2023-07-18T15:24:37.550Z,28.69
2023-07-18T15:29:39.348Z,28.80
2023-07-18T15:34:41.148Z,28.52
2023-07-18T15:39:43.008Z,27.31
2023-07-18T15:44:44.819Z,27.78
2023-07-18T15:49:46.823Z,27.85
2023-07-18T15:54:48.783Z,27.88
2023-07-18T15:59:50.719Z,28.16
2023-07-18T16:04:52.844Z,28.50
2023-07-18T16:09:59.638Z,28.81
2023-07-18T16:15:01.649Z,28.08
2023-07-18T16:20:05.486Z,29.02
2023-07-18T16:25:08.969Z,29.20
2023-07-18T16:30:11.562Z,28.19
2023-07-18T16:35:13.686Z,28.52
2023-07-18T16:40:15.491Z,28.53
2023-07-18T16:45:17.334Z,28.70
2023-07-18T16:50:19.392Z,29.26
2023-07-18T16:55:21.302Z,29.49
2023-07-18T17:00:23.175Z,29.62
2023-07-18T17:05:25.399Z,29.58
2023-07-18T17:10:27.814Z,29.76
2023-07-18T17:15:29.669Z,29.78
2023-07-18T17:20:31.520Z,29.65
2023-07-18T17:25:33.750Z,29.89
2023-07-18T17:30:35.890Z,29.94
2023-07-18T17:35:38.663Z,30.01
2023-07-18T17:40:40.476Z,29.87
2023-07-18T17:45:42.303Z,29.86
2023-07-18T17:50:44.356Z,29.41
2023-07-18T17:55:46.301Z,29.37
2023-07-18T18:00:48.185Z,29.00
2023-07-18T18:05:51.552Z,29.12
2023-07-18T18:10:53.424Z,29.15
2023-07-18T18:16:07.462Z,28.84
2023-07-18T18:21:11.899Z,29.00
2023-07-18T18:26:13.864Z,28.92
2023-07-18T18:31:16.287Z,28.78
2023-07-18T18:36:23.976Z,28.68
2023-07-18T18:41:25.862Z,28.59
2023-07-18T18:46:27.818Z,27.98
2023-07-18T18:51:29.682Z,28.28
2023-07-18T18:56:31.635Z,28.35
2023-07-18T19:01:33.470Z,28.28
2023-07-18T19:06:35.341Z,28.25
2023-07-18T19:11:37.220Z,28.29
2023-07-18T19:16:40.843Z,28.36
2023-07-18T19:21:43.300Z,28.13
2023-07-18T19:26:45.157Z,28.17
2023-07-18T19:31:46.993Z,28.07
2023-07-18T19:36:49.221Z,27.91
2023-07-18T19:41:51.056Z,28.14
2023-07-18T19:46:52.896Z,28.17
2023-07-18T19:51:57.747Z,28.00
2023-07-18T19:56:59.800Z,27.88
2023-07-18T20:02:01.655Z,27.71
2023-07-18T20:07:03.689Z,27.65
2023-07-18T20:12:05.775Z,27.66
2023-07-18T20:17:07.623Z,27.67
2023-07-18T20:22:09.419Z,27.77
2023-07-18T20:27:11.304Z,27.66
2023-07-18T20:32:13.134Z,27.54
2023-07-18T20:37:14.976Z,27.59
2023-07-18T20:42:17.013Z,27.28
2023-07-18T20:47:18.834Z,27.30
2023-07-18T20:52:20.635Z,27.52
2023-07-18T20:57:22.938Z,27.09
2023-07-18T21:02:24.739Z,26.89
2023-07-18T21:07:27.890Z,27.05
2023-07-18T21:12:29.646Z,26.93
2023-07-18T21:17:31.510Z,26.92
2023-07-18T21:22:34.264Z,26.90
2023-07-18T21:27:36.156Z,26.97
2023-07-18T21:32:38.029Z,26.96
2023-07-18T21:37:39.794Z,26.93
2023-07-18T21:42:41.548Z,26.82
2023-07-18T21:47:43.487Z,26.93
2023-07-18T21:52:45.557Z,27.08
2023-07-18T21:57:47.443Z,26.88
2023-07-18T22:02:49.304Z,27.09
2023-07-18T22:07:51.100Z,27.00
2023-07-18T22:12:52.859Z,27.11
2023-07-18T22:17:54.684Z,27.16
2023-07-18T22:22:56.446Z,27.26
2023-07-18T22:27:58.284Z,27.17
2023-07-18T22:33:00.048Z,27.24
2023-07-18T22:38:03.828Z,27.28
2023-07-18T22:43:06.458Z,27.29
2023-07-18T22:48:08.378Z,27.33
2023-07-18T22:53:10.221Z,27.63
2023-07-18T22:58:12.086Z,27.55
2023-07-18T23:03:15.610Z,27.42
2023-07-18T23:08:17.559Z,27.39
2023-07-18T23:13:19.373Z,27.26
2023-07-18T23:18:21.245Z,27.18
2023-07-18T23:23:23.211Z,26.09
2023-07-18T23:28:25.056Z,25.90
2023-07-18T23:33:26.817Z,26.37
2023-07-18T23:38:29.428Z,26.71
2023-07-18T23:43:31.592Z,26.75
2023-07-18T23:48:34.186Z,27.01
2023-07-18T23:53:36.046Z,26.57
2023-07-18T23:58:37.944Z,26.21
